Saint Louis, Texas
Current Conditions -  °F | °C
As of 11:53 PM on Tuesday 21 Oct 2014 (Local Time) from KTYR Reporting Station
Clear Clear  
Wind Chill: 19°   Ceiling: Unl
Heat Index: 19°   Visibility: 8mi
Dew Point: 16°   Wind: 0mph
Humidity: 84%   Direction: NA
Pressure: 30.07"   Gusts: NA
Location:  32.3248°N, 95.3025°W
Report Text: KTYR 220453Z 00000KT 8SM CLR 19/16 A3007 RMK AO2 SLP177 T01890161
Loading
Personal Weather Stations






























Interactive Weather Map
Tropical Storm Tracking
New forecast layout! Learn more

10-Day Weather Forecast

Advertisements
Track Severe Weather on mobile